Time;durP1;ratioP1;P1;durP2;ratioP2;P2;SDS_P1;SDS_P2;PMS_P1;PMS_P2;Temp;Humidity;BMP_temperature;BMP_pressure;BME280_temperature;BME280_humidity;BME280_pressure;Samples;Min_cycle;Max_cycle;Signal;HPM_P1;HPM_P2
2022/06/02 00:00:37;;;;;;;8.15;6.93;;;;;;;10.30;71.29;101887.84;5087179;28;20530;-85
2022/06/02 00:03:41;;;;;;;9.45;6.55;;;;;;;10.29;71.00;101891.41;5069848;28;20031;-85
2022/06/02 00:06:16;;;;;;;7.40;6.32;;;;;;;10.22;71.16;101897.72;5009168;28;20037;-85
2022/06/02 00:09:03;;;;;;;8.07;6.75;;;;;;;10.06;71.61;101891.88;5028646;28;20036;-85
2022/06/02 00:11:55;;;;;;;8.60;6.45;;;;;;;10.00;71.83;101899.06;5061616;28;20075;-85
2022/06/02 00:14:36;;;;;;;8.15;7.00;;;;;;;10.00;71.77;101899.06;5087823;28;20032;-85
2022/06/02 00:17:16;;;;;;;8.13;7.28;;;;;;;9.83;72.17;101902.03;5088116;28;20024;-85
2022/06/02 00:19:50;;;;;;;8.43;6.82;;;;;;;9.89;72.48;101896.66;5063888;28;20025;-85
2022/06/02 00:22:23;;;;;;;8.27;6.40;;;;;;;10.04;71.79;101901.63;5086349;28;20028;-85
2022/06/02 00:25:16;;;;;;;7.72;6.82;;;;;;;10.20;71.22;101900.38;5069201;28;20047;-85
2022/06/02 00:28:00;;;;;;;8.35;7.30;;;;;;;10.27;71.28;101902.94;5085980;28;20039;-85
2022/06/02 00:30:32;;;;;;;7.35;6.18;;;;;;;10.25;70.03;101907.38;5087832;28;20525;-85
2022/06/02 00:33:23;;;;;;;8.70;6.65;;;;;;;10.36;69.50;101905.38;5071623;28;20016;-85
2022/06/02 00:35:58;;;;;;;8.85;6.63;;;;;;;10.40;72.29;101907.91;5072623;28;20016;-85
2022/06/02 00:38:31;;;;;;;7.28;6.15;;;;;;;10.26;71.77;101894.13;5070373;28;20028;-85
2022/06/02 00:41:10;;;;;;;8.13;6.53;;;;;;;10.27;70.13;101901.16;5077267;28;20083;-85
2022/06/02 00:43:49;;;;;;;8.45;7.35;;;;;;;10.35;69.93;101900.97;5085091;28;20533;-85
2022/06/02 00:46:30;;;;;;;9.27;7.53;;;;;;;10.33;69.66;101903.66;5085027;28;20126;-85
2022/06/02 00:49:22;;;;;;;7.95;7.15;;;;;;;10.40;68.94;101904.41;5068667;28;20424;-85
2022/06/02 00:52:25;;;;;;;8.45;7.32;;;;;;;10.40;68.69;101897.34;5084754;28;20052;-85
2022/06/02 00:58:05;;;;;;;9.80;7.75;;;;;;;10.37;69.34;101907.97;5082781;28;20108;-85
2022/06/02 01:00:53;;;;;;;11.52;7.18;;;;;;;10.33;69.15;101905.44;5082311;28;20031;-85
2022/06/02 01:03:27;;;;;;;8.45;7.55;;;;;;;10.06;70.53;101909.50;5081624;28;20046;-85
2022/06/02 01:06:18;;;;;;;9.13;7.85;;;;;;;9.88;70.49;101908.09;5088802;28;20055;-85
2022/06/02 01:08:55;;;;;;;10.27;7.82;;;;;;;9.64;71.67;101915.59;5067023;28;20032;-85
2022/06/02 01:11:53;;;;;;;8.65;7.25;;;;;;;9.57;71.28;101905.19;5084305;28;20038;-85
2022/06/02 01:14:30;;;;;;;8.25;7.32;;;;;;;9.51;72.14;101915.84;5082241;28;20054;-84
2022/06/02 01:17:16;;;;;;;9.60;6.82;;;;;;;9.63;72.99;101913.88;5067342;28;20027;-84
2022/06/02 01:20:09;;;;;;;8.98;7.38;;;;;;;9.77;70.72;101913.59;5086674;28;20754;-85
2022/06/02 01:23:00;;;;;;;9.80;8.02;;;;;;;9.69;70.89;101911.09;5086447;28;20103;-85
2022/06/02 01:25:38;;;;;;;9.20;7.38;;;;;;;9.58;71.37;101910.44;5083545;28;20074;-85
2022/06/02 01:28:42;;;;;;;9.90;7.95;;;;;;;9.64;70.63;101907.69;5079860;28;20059;-85
2022/06/02 01:31:25;;;;;;;9.80;7.95;;;;;;;9.69;70.13;101907.59;5084215;28;20081;-85
2022/06/02 01:34:07;;;;;;;10.63;7.55;;;;;;;9.70;70.27;101904.06;5084759;28;20102;-85
2022/06/02 01:36:38;;;;;;;7.55;6.70;;;;;;;9.75;71.10;101912.78;5086036;28;20039;-84
2022/06/02 01:39:15;;;;;;;9.43;7.18;;;;;;;9.75;70.28;101911.91;5064647;28;20128;-85
2022/06/02 01:41:58;;;;;;;8.20;6.78;;;;;;;9.71;70.45;101904.03;5086203;28;20537;-85
2022/06/02 01:44:39;;;;;;;10.48;7.60;;;;;;;9.66;70.53;101908.53;5067117;28;20024;-85
2022/06/02 01:47:20;;;;;;;8.88;6.80;;;;;;;9.53;70.78;101907.03;5084773;28;20032;-85
2022/06/02 01:49:52;;;;;;;9.70;7.45;;;;;;;9.48;71.23;101908.88;5059894;28;20044;-85
2022/06/02 01:52:26;;;;;;;10.90;7.93;;;;;;;9.39;71.80;101907.28;5079336;28;20048;-85
2022/06/02 01:55:16;;;;;;;9.73;8.18;;;;;;;9.17;72.20;101904.13;5064478;28;20061;-85
2022/06/02 01:57:46;;;;;;;8.95;7.35;;;;;;;8.97;72.77;101898.34;5066769;28;20073;-85
2022/06/02 02:00:21;;;;;;;8.65;7.70;;;;;;;8.85;73.33;101904.66;5085556;28;20518;-85
2022/06/02 02:03:30;;;;;;;8.70;7.20;;;;;;;8.89;71.74;101895.81;5086729;28;20114;-85
2022/06/02 02:06:12;;;;;;;8.30;6.75;;;;;;;8.81;72.94;101904.75;5015330;28;20580;-85
2022/06/02 02:08:47;;;;;;;11.35;6.20;;;;;;;8.84;72.92;101908.22;5083389;28;20119;-84
2022/06/02 02:11:51;;;;;;;5.20;4.75;;;;;;;8.86;72.75;101909.06;5086777;28;20563;-85
2022/06/02 02:14:35;;;;;;;6.53;5.80;;;;;;;8.91;72.10;101907.22;5061993;28;20036;-85
2022/06/02 02:17:09;;;;;;;7.50;5.57;;;;;;;8.75;72.90;101913.63;5081025;28;20028;-85
2022/06/02 02:20:02;;;;;;;7.25;6.00;;;;;;;8.74;72.44;101911.88;5066343;28;20028;-85
2022/06/02 02:22:35;;;;;;;8.40;6.47;;;;;;;8.56;73.03;101917.44;5079873;28;20024;-85
2022/06/02 02:25:00;;;;;;;8.55;6.57;;;;;;;8.56;73.28;101923.56;5085463;28;20090;-85
2022/06/02 02:28:04;;;;;;;7.10;6.20;;;;;;;8.65;72.21;101923.44;5073238;28;20437;-85
2022/06/02 02:30:38;;;;;;;8.65;6.50;;;;;;;8.73;72.42;101922.47;5088303;28;20032;-85
2022/06/02 02:33:40;;;;;;;6.90;6.18;;;;;;;8.81;70.66;101924.09;5073190;28;20031;-85
2022/06/02 02:36:18;;;;;;;8.52;7.13;;;;;;;8.82;71.46;101919.69;5063014;28;20029;-85
2022/06/02 02:39:01;;;;;;;11.73;8.00;;;;;;;8.86;71.55;101922.25;5089957;28;20056;-85
2022/06/02 02:41:36;;;;;;;12.52;8.23;;;;;;;8.84;72.25;101923.16;5090342;28;20599;-85
2022/06/02 02:44:15;;;;;;;8.48;6.10;;;;;;;8.91;71.86;101927.47;5088518;28;20032;-85
2022/06/02 02:47:00;;;;;;;7.40;6.38;;;;;;;8.95;72.14;101923.84;5069020;28;20040;-85
2022/06/02 02:49:43;;;;;;;7.82;6.05;;;;;;;8.98;71.96;101925.59;5087793;28;20024;-85
2022/06/02 02:52:38;;;;;;;7.45;6.03;;;;;;;8.91;71.12;101924.81;5069191;28;20131;-85
2022/06/02 02:55:08;;;;;;;10.32;7.63;;;;;;;8.74;72.34;101925.06;5064106;28;20016;-85
2022/06/02 02:57:52;;;;;;;9.85;7.32;;;;;;;8.74;71.77;101932.13;5073239;28;20522;-85
2022/06/02 03:00:22;;;;;;;9.65;7.18;;;;;;;8.72;71.08;101928.59;5086642;28;20016;-85
2022/06/02 03:03:03;;;;;;;9.30;7.30;;;;;;;8.71;74.08;101932.16;5070648;28;20119;-85
2022/06/02 03:05:43;;;;;;;9.35;7.97;;;;;;;8.69;71.56;101938.31;5086064;28;20028;-85
2022/06/02 03:08:35;;;;;;;13.15;9.45;;;;;;;8.63;72.26;101932.28;5066549;28;20479;-85
2022/06/02 03:11:14;;;;;;;11.60;8.38;;;;;;;8.45;72.88;101937.81;5084460;28;20024;-85
2022/06/02 03:13:53;;;;;;;12.30;8.63;;;;;;;8.45;73.03;101940.44;5067776;28;20890;-85
2022/06/02 03:16:20;;;;;;;11.23;8.27;;;;;;;8.43;72.40;101936.03;5086331;28;20020;-85
2022/06/02 03:19:18;;;;;;;12.07;8.35;;;;;;;8.56;72.46;101935.88;5070236;28;20118;-85
2022/06/02 03:21:54;;;;;;;11.93;9.13;;;;;;;8.61;73.09;101952.50;5072853;28;20024;-85
2022/06/02 03:24:54;;;;;;;11.85;9.35;;;;;;;8.55;72.19;101950.84;5086433;28;20598;-85
2022/06/02 03:27:47;;;;;;;11.43;8.40;;;;;;;8.43;73.45;101954.50;5058803;28;20536;-85
2022/06/02 03:30:21;;;;;;;11.55;8.30;;;;;;;8.21;73.72;101952.13;5086806;28;20585;-85
2022/06/02 03:33:25;;;;;;;11.57;8.32;;;;;;;8.18;73.33;101959.19;5068998;28;20130;-85
2022/06/02 03:36:01;;;;;;;12.68;8.35;;;;;;;8.06;73.96;101966.34;5083312;28;20024;-85
2022/06/02 03:39:01;;;;;;;10.32;8.00;;;;;;;8.05;73.31;101959.34;5084270;28;20446;-85
2022/06/02 03:41:36;;;;;;;8.88;6.57;;;;;;;7.98;74.31;101968.22;5083583;28;20056;-85
2022/06/02 03:44:01;;;;;;;10.25;7.10;;;;;;;8.07;74.09;101973.38;5084327;28;20327;-85
2022/06/02 03:46:48;;;;;;;8.98;6.47;;;;;;;8.15;73.40;101977.66;5072861;28;20032;-85
2022/06/02 03:49:40;;;;;;;11.95;8.25;;;;;;;8.22;73.41;101967.06;5078931;28;20398;-85
2022/06/02 03:52:21;;;;;;;11.05;8.07;;;;;;;8.06;74.37;101979.53;5063133;28;20522;-85
2022/06/02 03:55:07;;;;;;;9.75;7.57;;;;;;;8.03;73.67;101980.44;5072065;28;20028;-85
2022/06/02 03:57:57;;;;;;;10.68;8.02;;;;;;;8.03;73.48;101985.72;5066047;28;20479;-85
2022/06/02 04:00:26;;;;;;;10.15;6.93;;;;;;;8.10;73.25;101984.72;5082978;28;20101;-85
2022/06/02 04:02:55;;;;;;;10.13;7.32;;;;;;;8.18;72.51;101980.25;5067871;28;20506;-85
2022/06/02 04:05:49;;;;;;;11.65;8.38;;;;;;;8.40;72.20;101990.56;5088244;28;20043;-85
2022/06/02 04:08:45;;;;;;;9.88;7.72;;;;;;;8.42;71.88;101992.28;5082557;28;20354;-85
2022/06/02 04:11:26;;;;;;;10.75;8.27;;;;;;;8.52;71.66;101998.31;5086031;28;20050;-85
2022/06/02 04:14:11;;;;;;;9.48;7.22;;;;;;;8.56;71.54;101993.88;5085530;28;20431;-85
2022/06/02 04:16:56;;;;;;;10.13;6.80;;;;;;;8.61;71.37;101995.53;5079185;28;20497;-85
2022/06/02 04:23:00;;;;;;;8.70;6.93;;;;;;;8.65;72.20;101996.38;5083513;28;20093;-85
2022/06/02 04:25:39;;;;;;;9.85;7.82;;;;;;;8.64;75.27;101984.09;5066099;28;20126;-85
2022/06/02 04:28:15;;;;;;;8.10;6.82;;;;;;;8.68;72.71;102004.25;5077239;28;20650;-85
2022/06/02 04:31:05;;;;;;;12.75;8.82;;;;;;;8.76;72.55;102001.50;5086426;28;20380;-85
2022/06/02 04:33:56;;;;;;;10.98;8.75;;;;;;;8.58;74.15;102005.25;5086076;28;20062;-85
2022/06/02 04:36:42;;;;;;;12.50;9.88;;;;;;;8.54;73.50;101995.66;5079030;28;20495;-85
2022/06/02 04:39:45;;;;;;;15.35;9.90;;;;;;;8.67;73.58;102008.66;5066577;28;20039;-85
2022/06/02 04:42:24;;;;;;;15.65;11.00;;;;;;;8.75;73.80;102008.53;5066674;28;20072;-85
2022/06/02 04:45:06;;;;;;;16.33;11.60;;;;;;;8.83;74.02;102016.34;5081386;28;20524;-85
2022/06/02 04:47:48;;;;;;;15.38;11.65;;;;;;;8.90;74.13;102015.34;5082580;28;20104;-85
2022/06/02 04:50:33;;;;;;;12.98;10.30;;;;;;;8.98;73.63;102008.22;5065835;28;20032;-85
2022/06/02 04:53:17;;;;;;;18.25;12.40;;;;;;;9.06;74.29;102011.63;5059977;28;20060;-85
2022/06/02 04:56:13;;;;;;;21.30;13.75;;;;;;;9.13;75.42;102022.94;5081860;28;20020;-85
2022/06/02 04:59:03;;;;;;;19.38;13.43;;;;;;;9.20;74.77;102025.47;5068070;28;20027;-85
2022/06/02 05:01:51;;;;;;;22.98;15.50;;;;;;;9.27;74.77;102022.72;5086468;28;20016;-85
2022/06/02 05:04:27;;;;;;;22.60;15.75;;;;;;;9.28;74.76;102028.00;5085839;28;20031;-85
2022/06/02 05:07:09;;;;;;;26.95;18.05;;;;;;;9.40;74.74;102026.91;5086468;28;20023;-85
2022/06/02 05:09:47;;;;;;;32.05;21.15;;;;;;;9.49;74.92;102025.91;5082249;28;20036;-85
2022/06/02 05:12:16;;;;;;;33.28;20.70;;;;;;;9.57;75.24;102027.50;5065634;28;20028;-85
2022/06/02 05:14:58;;;;;;;39.92;21.95;;;;;;;9.63;75.58;102027.41;5087393;28;20020;-85
2022/06/02 05:17:45;;;;;;;34.17;21.42;;;;;;;9.74;75.55;102027.22;5084508;28;20539;-85
2022/06/02 05:20:35;;;;;;;35.05;21.92;;;;;;;9.83;74.68;102027.03;5085746;28;20110;-85
2022/06/02 05:23:33;;;;;;;30.30;20.02;;;;;;;9.96;74.58;102030.34;5064225;28;20028;-85
2022/06/02 05:26:11;;;;;;;32.75;20.70;;;;;;;10.01;75.40;102031.13;5085575;28;20502;-85
2022/06/02 05:29:07;;;;;;;35.97;23.02;;;;;;;10.14;74.75;102030.00;5085367;28;20038;-85
2022/06/02 05:31:47;;;;;;;34.85;22.30;;;;;;;10.23;74.79;102032.47;5074142;28;20024;-85
2022/06/02 05:34:30;;;;;;;36.45;23.45;;;;;;;10.30;75.36;102032.38;5069178;28;20100;-85
2022/06/02 05:37:17;;;;;;;35.00;22.45;;;;;;;10.37;75.80;102023.41;5061426;28;20528;-85
2022/06/02 05:39:57;;;;;;;36.30;23.08;;;;;;;10.45;75.89;102030.28;5068378;28;20046;-85
2022/06/02 05:42:30;;;;;;;39.85;24.52;;;;;;;10.49;75.72;102031.06;5057937;28;21406;-85
2022/06/02 05:45:05;;;;;;;33.65;22.65;;;;;;;10.58;76.21;102036.19;5068882;28;20089;-86
2022/06/02 05:47:47;;;;;;;37.42;24.25;;;;;;;10.68;77.27;102035.09;5066738;28;20603;-85
2022/06/02 05:50:18;;;;;;;36.92;24.73;;;;;;;10.80;78.19;102036.59;5065072;28;20024;-86
2022/06/02 05:52:43;;;;;;;37.88;25.35;;;;;;;10.90;78.73;102039.91;5083212;28;20100;-86
2022/06/02 05:55:36;;;;;;;37.97;24.70;;;;;;;10.99;77.91;102037.91;5084124;28;20436;-85
2022/06/02 05:58:14;;;;;;;32.08;22.10;;;;;;;11.09;76.89;102040.34;5066878;28;20024;-86
2022/06/02 06:00:42;;;;;;;31.42;21.50;;;;;;;11.14;76.60;102041.13;5065435;28;20042;-85
2022/06/02 06:03:41;;;;;;;28.02;19.45;;;;;;;11.25;75.72;102041.75;5085591;28;20040;-85
2022/06/02 06:06:22;;;;;;;33.70;21.13;;;;;;;11.33;77.10;102045.09;5075850;28;20062;-85
2022/06/02 06:09:02;;;;;;;34.42;21.50;;;;;;;11.48;76.14;102052.66;5083037;28;20121;-86
2022/06/02 06:12:02;;;;;;;32.55;21.17;;;;;;;11.64;76.91;102045.19;5062968;28;20055;-85
2022/06/02 06:14:39;;;;;;;31.45;21.60;;;;;;;11.82;76.36;102051.84;5080337;28;20491;-85
2022/06/02 06:17:26;;;;;;;30.48;20.95;;;;;;;12.05;77.59;102061.84;5082252;28;20082;-85
2022/06/02 06:20:33;;;;;;;31.92;20.42;;;;;;;12.15;75.00;102054.50;5085667;28;20036;-85
2022/06/02 06:23:33;;;;;;;27.90;20.10;;;;;;;12.25;73.87;102064.81;5065060;28;20032;-85
2022/06/02 06:26:29;;;;;;;26.50;19.42;;;;;;;12.31;73.39;102061.13;5082136;28;20039;-85
2022/06/02 06:29:13;;;;;;;27.80;18.50;;;;;;;12.35;73.72;102064.56;5081501;28;20020;-85
2022/06/02 06:31:47;;;;;;;25.58;17.70;;;;;;;12.45;73.49;102066.94;5078071;28;20067;-85
2022/06/02 06:34:32;;;;;;;24.50;17.88;;;;;;;12.67;74.15;102075.13;5065012;28;20123;-85
2022/06/02 06:37:34;;;;;;;21.52;14.57;;;;;;;12.82;72.19;102075.56;5081572;28;20040;-85
2022/06/02 06:40:27;;;;;;;21.23;15.65;;;;;;;13.06;72.82;102074.88;5064614;28;20081;-85
2022/06/02 06:43:23;;;;;;;18.45;13.40;;;;;;;13.31;72.20;102079.44;5063605;28;20315;-86
2022/06/02 06:45:52;;;;;;;19.25;14.63;;;;;;;13.39;71.32;102088.03;5077306;28;20036;-86
2022/06/02 06:48:22;;;;;;;18.17;13.43;;;;;;;13.60;71.04;102087.31;5084058;28;20579;-85
2022/06/02 06:50:57;;;;;;;17.95;13.63;;;;;;;13.81;70.14;102091.06;5064461;28;20379;-85
2022/06/02 06:53:51;;;;;;;17.70;12.70;;;;;;;13.93;70.03;102082.66;5067244;28;20062;-85
2022/06/02 06:56:30;;;;;;;17.95;13.30;;;;;;;13.99;68.13;102095.75;5062724;28;20027;-85
2022/06/02 06:59:29;;;;;;;17.10;12.25;;;;;;;14.03;69.53;102100.06;5082038;28;20060;-86
2022/06/02 07:02:05;;;;;;;15.98;11.85;;;;;;;14.24;71.11;102089.59;5083816;28;20103;-87
2022/06/02 07:04:56;;;;;;;16.33;11.73;;;;;;;14.32;68.55;102097.31;5063961;28;20067;-86
2022/06/02 07:07:39;;;;;;;14.05;11.25;;;;;;;14.34;68.87;102090.13;5085480;28;20032;-86
2022/06/02 07:10:20;;;;;;;13.70;10.82;;;;;;;14.56;67.93;102100.91;5080489;28;20035;-85
2022/06/02 07:13:01;;;;;;;13.35;11.70;;;;;;;14.49;66.25;102097.56;5065542;28;20109;-86
2022/06/02 07:15:51;;;;;;;16.33;11.00;;;;;;;14.66;67.45;102111.13;5060224;28;20483;-86
2022/06/02 07:18:24;;;;;;;13.32;11.18;;;;;;;14.61;66.86;102112.25;5082186;28;20420;-86
2022/06/02 07:20:59;;;;;;;16.35;12.85;;;;;;;14.62;64.84;102112.16;5073855;28;20436;-86
2022/06/02 07:23:51;;;;;;;17.65;12.55;;;;;;;14.79;66.32;102108.91;5087234;28;20053;-86
2022/06/02 07:26:22;;;;;;;16.10;11.60;;;;;;;14.96;63.50;102114.44;5064422;28;20133;-86
2022/06/02 07:29:22;;;;;;;12.50;11.03;;;;;;;15.52;64.06;102113.13;5069475;28;20517;-85
2022/06/02 07:31:53;;;;;;;12.43;9.60;;;;;;;16.59;58.24;102119.25;5085016;28;20026;-86
2022/06/02 07:34:56;;;;;;;10.15;9.15;;;;;;;16.44;59.16;102118.16;5070008;28;20032;-86
2022/06/02 07:37:39;;;;;;;16.48;10.45;;;;;;;17.13;58.57;102119.50;5084422;28;20111;-86
2022/06/02 07:40:16;;;;;;;10.32;8.43;;;;;;;18.31;55.43;102125.22;5073412;28;20021;-85
2022/06/02 07:42:56;;;;;;;9.98;8.95;;;;;;;19.04;52.36;102129.38;5062555;28;20564;-86
2022/06/02 07:45:34;;;;;;;10.50;9.32;;;;;;;19.91;52.07;102120.88;5079486;28;20394;-86
2022/06/02 07:48:22;;;;;;;9.43;8.43;;;;;;;20.56;50.24;102120.53;5081381;28;20111;-86
2022/06/02 07:51:25;;;;;;;10.63;9.48;;;;;;;20.79;48.26;102122.66;5083722;28;20035;-86
2022/06/02 07:54:03;;;;;;;;;;;;;;;21.47;51.14;102126.44;5034141;28;20045;-86
2022/06/02 07:56:37;;;;;;;7.75;7.03;;;;;;;20.87;46.04;102125.72;5071836;28;20010;-87
2022/06/02 07:59:18;;;;;;;8.77;7.88;;;;;;;19.84;49.82;102125.72;5071765;28;20437;-87
2022/06/02 08:02:02;;;;;;;10.00;7.95;;;;;;;18.79;51.23;102131.63;5071522;28;20024;-86
2022/06/02 08:04:48;;;;;;;10.00;7.68;;;;;;;18.57;52.51;102126.56;5082309;28;20028;-87
2022/06/02 08:07:26;;;;;;;9.55;8.55;;;;;;;18.21;53.41;102124.84;5070458;28;20031;-87
2022/06/02 08:10:05;;;;;;;10.63;9.20;;;;;;;17.73;53.18;102126.41;5081227;28;20027;-88
2022/06/02 08:12:42;;;;;;;12.30;9.57;;;;;;;17.53;53.10;102126.47;5083503;28;20031;-88
2022/06/02 08:15:17;;;;;;;9.93;8.93;;;;;;;17.76;53.06;102120.00;5064581;28;20013;-88
2022/06/02 08:17:50;;;;;;;9.73;8.45;;;;;;;17.39;53.00;102123.59;5066503;28;20028;-88
2022/06/02 08:20:47;;;;;;;9.45;8.43;;;;;;;17.69;54.56;102121.25;5088786;28;20024;-88
2022/06/02 08:23:45;;;;;;;9.80;8.75;;;;;;;19.36;51.29;102126.72;5086919;28;20491;-87
2022/06/02 08:26:30;;;;;;;10.20;8.35;;;;;;;20.70;47.40;102117.84;5063096;28;20044;-88
2022/06/02 08:29:43;;;;;;;7.68;6.80;;;;;;;21.43;44.17;102122.22;5061476;28;20036;-88
2022/06/02 08:32:27;;;;;;;8.52;7.43;;;;;;;22.04;39.38;102116.28;5012383;28;20512;-88
2022/06/02 08:35:11;;;;;;;8.05;7.25;;;;;;;22.91;41.79;102125.53;5069195;28;20027;-88
2022/06/02 08:37:44;;;;;;;8.10;7.40;;;;;;;23.11;39.93;102126.78;5066367;28;20653;-88
2022/06/02 08:40:39;;;;;;;7.57;6.88;;;;;;;23.31;39.77;102128.88;5086224;28;20530;-88
2022/06/02 08:43:32;;;;;;;6.43;5.30;;;;;;;23.87;38.50;102125.66;5085705;28;20023;-88
2022/06/02 08:46:29;;;;;;;6.97;6.38;;;;;;;24.11;37.66;102123.78;5082804;28;20556;-88
2022/06/02 08:49:18;;;;;;;7.40;6.28;;;;;;;23.97;37.69;102121.28;5070094;28;20070;-88
2022/06/02 08:52:04;;;;;;;7.78;6.43;;;;;;;23.57;38.73;102132.38;5067285;28;20477;-88
2022/06/02 08:54:41;;;;;;;7.85;6.75;;;;;;;23.41;36.14;102142.59;5077707;28;20041;-88
2022/06/02 08:57:28;;;;;;;7.50;6.75;;;;;;;23.10;36.74;102135.88;5084329;28;20024;-87
2022/06/02 09:00:22;;;;;;;7.93;6.43;;;;;;;23.54;40.09;102140.69;5064975;28;20058;-87
2022/06/02 09:03:14;;;;;;;6.82;6.13;;;;;;;23.98;38.33;102141.91;5067336;28;20026;-87
2022/06/02 09:05:49;;;;;;;7.05;6.20;;;;;;;24.08;38.36;102139.38;5080231;28;20181;-87
2022/06/02 09:08:41;;;;;;;6.45;5.47;;;;;;;24.26;38.26;102143.38;5081712;28;20036;-87
2022/06/02 09:11:12;;;;;;;6.78;6.07;;;;;;;23.49;36.39;102136.59;5082573;28;20383;-88
2022/06/02 09:14:08;;;;;;;7.57;6.87;;;;;;;23.02;38.67;102132.84;5081596;28;20032;-88
2022/06/02 09:16:54;;;;;;;7.72;7.05;;;;;;;22.64;36.50;102128.34;5063083;28;20043;-88
2022/06/02 09:19:38;;;;;;;7.80;7.03;;;;;;;22.50;40.57;102123.91;5046161;28;20043;-89
2022/06/02 09:22:29;;;;;;;7.40;6.70;;;;;;;22.52;40.76;102130.06;5082679;28;20028;-87
2022/06/02 09:25:14;;;;;;;6.55;5.95;;;;;;;22.89;41.39;102128.31;5083902;28;20578;-87
2022/06/02 09:27:48;;;;;;;5.80;5.30;;;;;;;23.11;40.79;102129.50;5075518;28;20105;-88
2022/06/02 09:30:18;;;;;;;7.85;7.03;;;;;;;22.71;40.38;102126.06;5065047;28;20039;-88
2022/06/02 09:33:33;;;;;;;6.85;5.32;;;;;;;23.14;41.06;102134.66;5069369;28;20310;-88
2022/06/02 09:35:55;;;;;;;5.95;5.45;;;;;;;23.59;37.78;102126.84;5080540;28;20032;-88
2022/06/02 09:38:55;;;;;;;5.32;4.82;;;;;;;23.79;38.48;102128.94;5087304;28;20630;-88
2022/06/02 09:41:58;;;;;;;5.30;4.80;;;;;;;23.85;37.61;102127.63;5077548;28;20107;-88
2022/06/02 09:44:59;;;;;;;5.35;4.95;;;;;;;22.82;35.56;102129.72;5062291;28;20131;-88
2022/06/02 09:47:33;;;;;;;5.00;4.60;;;;;;;23.21;39.36;102122.44;5073803;28;20518;-88
2022/06/02 09:50:17;;;;;;;5.95;5.35;;;;;;;23.84;39.09;102124.06;5083295;28;20027;-88
2022/06/02 09:52:56;;;;;;;5.97;5.47;;;;;;;24.07;37.28;102116.91;5078283;28;20040;-88
2022/06/02 09:55:49;;;;;;;6.18;5.57;;;;;;;24.18;37.17;102124.16;5063600;28;20032;-88
2022/06/02 09:58:25;;;;;;;7.40;6.53;;;;;;;23.42;35.23;102130.81;5081669;28;20035;-89
2022/06/02 10:00:57;;;;;;;7.60;6.90;;;;;;;22.77;36.44;102129.19;5077128;28;20035;-89
2022/06/02 10:03:52;;;;;;;6.72;6.15;;;;;;;23.42;38.56;102125.41;5076459;28;21307;-89
2022/06/02 10:06:30;;;;;;;6.30;5.53;;;;;;;24.08;37.20;102110.50;5063312;28;20035;-89
2022/06/02 10:09:25;;;;;;;6.25;5.65;;;;;;;24.72;37.31;102126.25;5084190;28;20383;-89
2022/06/02 10:12:54;;;;;;;6.72;6.13;;;;;;;24.13;35.80;102121.81;5067327;28;20072;-89
2022/06/02 10:14:57;;;;;;;7.03;6.40;;;;;;;24.23;37.26;102121.97;5074664;28;20024;-89
2022/06/02 10:17:37;;;;;;;6.72;5.85;;;;;;;25.09;36.85;102117.94;5062508;28;20561;-89
2022/06/02 10:20:21;;;;;;;6.82;6.22;;;;;;;25.65;36.16;102115.09;5086012;28;20530;-89
2022/06/02 10:23:18;;;;;;;6.57;5.93;;;;;;;25.32;33.97;102121.44;5067003;28;20085;-89
2022/06/02 10:26:27;;;;;;;5.70;5.13;;;;;;;25.82;35.85;102114.53;5069214;28;20031;-89
2022/06/02 10:29:30;;;;;;;6.65;5.35;;;;;;;26.04;34.54;102107.28;5068600;28;20031;-89
2022/06/02 10:32:32;;;;;;;6.05;5.43;;;;;;;26.63;35.13;102109.41;5064365;28;20033;-90
2022/06/02 10:35:09;;;;;;;6.10;5.60;;;;;;;26.85;32.92;102119.19;5083195;28;20534;-90
2022/06/02 10:37:54;;;;;;;6.38;5.78;;;;;;;26.31;31.23;102110.34;5063010;28;20032;-89
2022/06/02 10:40:41;;;;;;;6.93;6.32;;;;;;;26.53;33.89;102120.19;5080105;28;20509;-89
2022/06/02 10:43:35;;;;;;;7.45;6.75;;;;;;;25.56;33.83;102107.72;5078000;28;20036;-89
2022/06/02 10:46:43;;;;;;;7.18;6.57;;;;;;;25.66;34.77;102095.13;5080959;28;20032;-89
2022/06/02 10:49:44;;;;;;;7.18;6.57;;;;;;;25.53;34.22;102105.25;5082087;28;20020;-89
2022/06/02 10:52:44;;;;;;;5.63;5.10;;;;;;;25.95;34.46;102103.50;5085401;28;20447;-89
2022/06/02 10:55:12;;;;;;;5.45;4.90;;;;;;;25.39;32.20;102104.56;5072401;28;20036;-89
2022/06/02 10:58:15;;;;;;;6.60;4.78;;;;;;;25.09;31.98;102105.25;5068864;28;20031;-88
2022/06/02 11:01:12;;;;;;;6.30;5.70;;;;;;;25.26;30.72;102098.44;5068059;28;20471;-90
2022/06/02 11:04:13;;;;;;;5.88;5.38;;;;;;;25.70;33.15;102094.75;5081338;28;20557;-90
2022/06/02 11:07:15;;;;;;;6.72;6.07;;;;;;;26.45;29.66;102096.47;5086366;28;20024;-90
2022/06/02 11:10:24;;;;;;;5.90;5.38;;;;;;;25.80;32.88;102089.44;5086202;28;20470;-89
2022/06/02 11:13:31;;;;;;;7.88;7.18;;;;;;;24.64;32.81;102088.16;5086045;28;20084;-91
2022/06/02 11:16:19;;;;;;;6.57;5.97;;;;;;;24.63;34.07;102091.84;5042240;28;20078;-90
2022/06/02 11:19:09;;;;;;;7.15;6.55;;;;;;;25.93;33.67;102084.69;5085737;28;20076;-90
2022/06/02 11:22:07;;;;;;;7.38;6.78;;;;;;;26.61;33.46;102089.69;5083203;28;20108;-90
2022/06/02 11:24:38;;;;;;;7.57;6.78;;;;;;;26.70;31.99;102086.16;5069065;28;20024;-90
2022/06/02 11:27:29;;;;;;;9.05;8.13;;;;;;;26.89;32.35;102083.50;5065906;28;20036;-90
2022/06/02 11:30:19;;;;;;;6.88;6.38;;;;;;;27.47;31.97;102088.25;5084464;28;20490;-91
2022/06/02 11:33:15;;;;;;;8.63;7.40;;;;;;;26.97;32.51;102090.97;5068642;28;20078;-90
2022/06/02 11:36:16;;;;;;;9.23;6.70;;;;;;;25.88;32.45;102080.63;5054772;28;20278;-90
2022/06/02 11:39:05;;;;;;;7.07;6.38;;;;;;;25.04;33.19;102083.09;5084195;28;21521;-90
2022/06/02 11:41:52;;;;;;;6.80;6.10;;;;;;;25.05;32.01;102078.53;5062506;28;20039;-91
2022/06/02 11:44:40;;;;;;;6.85;6.15;;;;;;;25.06;32.39;102080.25;5084505;28;20514;-91
2022/06/02 11:47:27;;;;;;;5.60;4.97;;;;;;;25.53;30.22;102079.03;5031610;28;20526;-91
2022/06/02 11:49:55;;;;;;;5.10;4.60;;;;;;;26.18;29.47;102069.88;5086532;28;20193;-91
2022/06/02 11:52:33;;;;;;;4.72;4.28;;;;;;;26.24;27.12;102057.63;5083449;28;20036;-90
2022/06/02 11:55:16;;;;;;;4.25;3.92;;;;;;;26.61;28.14;102068.84;5069017;28;20098;-90
2022/06/02 11:58:05;;;;;;;5.47;4.93;;;;;;;26.22;29.13;102056.06;5066709;28;20115;-91
2022/06/02 12:00:55;;;;;;;6.07;5.57;;;;;;;25.40;31.35;102060.25;5094339;28;20070;-90
2022/06/02 12:03:58;;;;;;;9.43;6.88;;;;;;;25.72;32.17;102053.09;5068934;28;20024;-91
2022/06/02 12:06:42;;;;;;;7.88;7.18;;;;;;;26.42;30.96;102044.31;5079065;28;20068;-90
2022/06/02 12:09:25;;;;;;;6.75;6.15;;;;;;;26.41;31.50;102054.28;5081522;28;20031;-89
2022/06/02 12:11:57;;;;;;;5.55;5.05;;;;;;;26.24;30.40;102049.50;5066061;28;20535;-90
2022/06/02 12:14:36;;;;;;;5.30;4.88;;;;;;;26.62;30.28;102046.13;5086913;28;20020;-90
2022/06/02 12:17:14;;;;;;;4.78;4.38;;;;;;;27.05;29.27;102039.56;5059425;28;20027;-90
2022/06/02 12:19:52;;;;;;;5.57;5.07;;;;;;;27.50;29.74;102043.63;5087553;28;20032;-90
2022/06/02 12:22:49;;;;;;;5.53;5.13;;;;;;;27.91;29.39;102028.91;5065204;28;20059;-91
2022/06/02 12:25:26;;;;;;;5.30;4.88;;;;;;;27.95;27.39;102019.44;5082983;28;20475;-90
2022/06/02 12:28:17;;;;;;;5.43;4.97;;;;;;;28.14;28.33;102022.13;5066028;28;20435;-90
2022/06/02 12:31:03;;;;;;;6.28;5.55;;;;;;;28.28;27.66;102023.50;5065942;28;20471;-90
2022/06/02 12:34:03;;;;;;;6.15;5.65;;;;;;;28.39;28.23;102023.34;5088353;28;20169;-90
2022/06/02 12:36:44;;;;;;;5.38;4.97;;;;;;;28.54;26.25;102028.28;5084389;28;20020;-90
2022/06/02 12:39:40;;;;;;;5.93;5.40;;;;;;;28.40;26.95;102014.19;5085629;28;20487;-91
2022/06/02 12:42:42;;;;;;;5.07;4.68;;;;;;;28.04;28.21;102028.59;5077569;28;20044;-90
2022/06/02 12:45:23;;;;;;;4.88;4.47;;;;;;;27.75;27.73;102015.06;5083164;28;20024;-90
2022/06/02 12:48:10;;;;;;;5.10;4.70;;;;;;;28.02;25.56;102006.97;5080199;28;20494;-90
2022/06/02 12:50:51;;;;;;;5.40;4.90;;;;;;;28.22;26.13;102002.34;5088837;28;20039;-90
2022/06/02 12:53:16;;;;;;;5.70;5.28;;;;;;;28.26;25.50;102001.06;5077359;28;20495;-90